YBW weather

Calgary / Springbank Airport
Calgary, Alberta, Canada

Public forecast

Using degrees Celsius for public forecast. Weather courtesy of forecast.io.

METAR (pilot weather report)

Retrieved 2019/03/27 02:00 UTC (25 seconds ago):

CYBW 270200Z AUTO 33007KT 9SM OVC110 02/00 A2977 RMK SLP127

TAF (pilot weather forecast)

Forecast is more than 12 hours old.

Retrieved 2019/03/26 00:00 UTC (1 day ago):

TAF CYBW 262349Z 2700/2704 26012KT P6SM BKN100 BECMG 2700/2702 30012KT FM270300 34015KT 6SM -SHRA SCT006 OVC040 TEMPO 2703/2704 2SM -SHRA BR OVC006 RMK FCST BASED ON AUTO OBS. NXT FCST WILL BE ISSUED AT 271145Z